createdAt,value
2022-11-09T00:01:29.396Z,19.70
2022-11-09T00:03:58.616Z,19.60
2022-11-09T00:06:27.654Z,19.60
2022-11-09T00:08:59.420Z,19.60
2022-11-09T00:11:31.534Z,19.60
2022-11-09T00:13:59.919Z,19.60
2022-11-09T00:16:28.216Z,19.60
2022-11-09T00:18:56.541Z,19.60
2022-11-09T00:21:26.673Z,19.60
2022-11-09T00:23:55.209Z,19.60
2022-11-09T00:26:25.394Z,19.60
2022-11-09T00:28:55.203Z,19.50
2022-11-09T00:31:24.709Z,19.60
2022-11-09T00:33:54.606Z,19.60
2022-11-09T00:36:24.588Z,19.50
2022-11-09T00:38:54.063Z,19.60
2022-11-09T00:41:24.788Z,19.60
2022-11-09T00:43:53.247Z,19.60
2022-11-09T00:46:22.231Z,19.50
2022-11-09T00:48:50.890Z,19.50
2022-11-09T00:51:19.887Z,19.50
2022-11-09T00:53:48.725Z,19.50
2022-11-09T00:56:17.071Z,19.50
2022-11-09T00:58:46.780Z,19.60
2022-11-09T01:01:17.523Z,19.50
2022-11-09T01:03:46.886Z,19.50
2022-11-09T01:06:17.380Z,19.50
2022-11-09T01:08:46.292Z,19.50
2022-11-09T01:11:15.540Z,19.50
2022-11-09T01:13:44.010Z,19.50
2022-11-09T01:16:15.693Z,19.50
2022-11-09T01:18:44.513Z,19.50
2022-11-09T01:21:14.761Z,19.50
2022-11-09T01:23:44.112Z,19.40
2022-11-09T01:26:14.653Z,19.50
2022-11-09T01:28:43.248Z,19.50
2022-11-09T01:31:15.216Z,19.50
2022-11-09T01:33:43.984Z,19.50
2022-11-09T01:36:14.542Z,19.50
2022-11-09T01:38:43.273Z,19.50
2022-11-09T01:41:16.081Z,19.40
2022-11-09T01:43:45.213Z,19.40
2022-11-09T01:46:21.276Z,19.40
2022-11-09T01:48:53.794Z,19.40
2022-11-09T01:51:28.499Z,19.40
2022-11-09T01:54:00.715Z,19.40
2022-11-09T01:56:30.663Z,19.40
2022-11-09T01:59:04.036Z,19.40
2022-11-09T02:01:34.598Z,19.40
2022-11-09T02:04:06.920Z,19.40
2022-11-09T02:06:35.909Z,19.40
2022-11-09T02:09:10.554Z,19.40
2022-11-09T02:11:39.826Z,19.40
2022-11-09T02:14:09.166Z,19.40
2022-11-09T02:16:39.485Z,19.30
2022-11-09T02:19:07.764Z,19.40
2022-11-09T02:21:37.469Z,19.40
2022-11-09T02:24:06.394Z,19.30
2022-11-09T02:26:40.143Z,19.30
2022-11-09T02:29:10.929Z,19.30
2022-11-09T02:31:43.439Z,19.30
2022-11-09T02:34:15.484Z,19.30
2022-11-09T02:36:45.291Z,19.30
2022-11-09T02:39:16.304Z,19.30
2022-11-09T02:41:49.533Z,19.30
2022-11-09T02:44:19.528Z,19.30
2022-11-09T02:46:48.214Z,19.30
2022-11-09T02:49:16.521Z,19.30
2022-11-09T02:51:46.230Z,19.30
2022-11-09T02:54:15.321Z,19.20
2022-11-09T02:56:43.663Z,19.30
2022-11-09T02:59:12.095Z,19.30
2022-11-09T03:01:40.460Z,19.20
2022-11-09T03:04:08.704Z,19.30
2022-11-09T03:06:37.260Z,19.20
2022-11-09T03:09:09.979Z,19.20
2022-11-09T03:11:39.233Z,19.20
2022-11-09T03:14:07.754Z,19.20
2022-11-09T03:16:36.658Z,19.20
2022-11-09T03:19:05.236Z,19.20
2022-11-09T03:21:33.611Z,19.20
2022-11-09T03:24:02.000Z,19.20
2022-11-09T03:26:31.695Z,19.20
2022-11-09T03:28:59.965Z,19.30
2022-11-09T03:31:28.283Z,19.20
2022-11-09T03:33:56.644Z,19.20
2022-11-09T03:36:24.961Z,19.20
2022-11-09T03:38:53.244Z,19.20
2022-11-09T03:41:21.542Z,19.20
2022-11-09T03:43:51.210Z,19.20
2022-11-09T03:46:19.481Z,19.20
2022-11-09T03:48:47.865Z,19.20
2022-11-09T03:51:16.260Z,19.20
2022-11-09T03:53:44.604Z,19.20
2022-11-09T03:56:12.989Z,19.20
2022-11-09T03:58:41.302Z,19.10
2022-11-09T04:01:11.619Z,19.20
2022-11-09T04:03:39.922Z,19.10
2022-11-09T04:06:08.633Z,19.10
2022-11-09T04:08:37.082Z,19.10
2022-11-09T04:11:05.424Z,19.10
2022-11-09T04:13:33.708Z,19.10
2022-11-09T04:16:02.065Z,19.10
2022-11-09T04:18:31.788Z,19.10
2022-11-09T04:21:00.577Z,19.10
2022-11-09T04:23:28.858Z,19.10
2022-11-09T04:25:59.805Z,19.10
2022-11-09T04:28:28.090Z,19.10
2022-11-09T04:30:56.465Z,19.10
2022-11-09T04:33:24.782Z,19.10
2022-11-09T04:35:54.565Z,19.10
2022-11-09T04:38:22.945Z,19.10
2022-11-09T04:40:51.499Z,19.10
2022-11-09T04:43:20.080Z,19.10
2022-11-09T04:45:48.658Z,19.10
2022-11-09T04:48:17.032Z,19.10
2022-11-09T04:50:45.352Z,19.10
2022-11-09T04:53:16.675Z,19.10
2022-11-09T04:55:45.411Z,19.10
2022-11-09T04:58:13.769Z,19.10
2022-11-09T05:00:42.077Z,19.10
2022-11-09T05:03:10.860Z,19.00
2022-11-09T05:05:45.442Z,19.00
2022-11-09T05:08:17.817Z,19.00
2022-11-09T05:10:46.188Z,19.00
2022-11-09T05:13:15.719Z,19.00
2022-11-09T05:15:44.070Z,19.00
2022-11-09T05:18:12.387Z,19.00
2022-11-09T05:20:40.650Z,19.00
2022-11-09T05:23:26.555Z,19.00
2022-11-09T05:25:56.316Z,19.00
2022-11-09T05:28:24.676Z,19.00
2022-11-09T05:30:53.076Z,19.00
2022-11-09T05:33:21.839Z,19.00
2022-11-09T05:35:50.307Z,19.00
2022-11-09T05:38:18.579Z,19.00
2022-11-09T05:40:49.448Z,19.00
2022-11-09T05:43:19.890Z,19.00
2022-11-09T05:45:48.780Z,19.00
2022-11-09T05:48:18.413Z,19.00
2022-11-09T05:50:46.766Z,19.00
2022-11-09T05:53:15.066Z,19.00
2022-11-09T05:55:43.511Z,19.00
2022-11-09T05:58:11.863Z,19.00
2022-11-09T06:00:41.608Z,19.00
2022-11-09T06:03:11.556Z,19.00
2022-11-09T06:05:41.216Z,18.90
2022-11-09T06:08:11.247Z,18.90
2022-11-09T06:10:39.696Z,18.90
2022-11-09T06:13:08.255Z,18.90
2022-11-09T06:15:36.631Z,18.90
2022-11-09T06:18:06.384Z,18.90
2022-11-09T06:20:34.716Z,19.00
2022-11-09T06:23:04.444Z,18.90
2022-11-09T06:25:33.742Z,18.90
2022-11-09T06:28:02.383Z,18.90
2022-11-09T06:30:31.453Z,18.90
2022-11-09T06:33:01.218Z,18.90
2022-11-09T06:35:31.563Z,18.90
2022-11-09T06:38:01.573Z,18.90
2022-11-09T06:40:30.563Z,18.90
2022-11-09T06:42:59.727Z,18.90
2022-11-09T06:45:29.736Z,18.90
2022-11-09T06:47:58.266Z,18.90
2022-11-09T06:50:27.325Z,18.90
2022-11-09T06:52:59.573Z,18.90
2022-11-09T06:55:28.695Z,18.90
2022-11-09T06:57:57.589Z,18.90
2022-11-09T07:00:26.832Z,18.90
2022-11-09T07:02:55.280Z,18.90
2022-11-09T07:05:23.651Z,19.00
2022-11-09T07:07:52.054Z,18.90
2022-11-09T07:10:21.846Z,18.90
2022-11-09T07:12:50.260Z,18.90
2022-11-09T07:15:18.999Z,18.90
2022-11-09T07:17:47.365Z,18.90
2022-11-09T07:20:16.286Z,19.00
2022-11-09T07:22:44.906Z,19.00
2022-11-09T07:25:14.013Z,19.00
2022-11-09T07:27:43.837Z,19.00
2022-11-09T07:30:12.994Z,19.00
2022-11-09T07:35:30.757Z,19.00
2022-11-09T07:38:02.414Z,19.00
2022-11-09T07:40:31.238Z,19.00
2022-11-09T07:43:01.564Z,19.00
2022-11-09T07:45:30.287Z,18.90
2022-11-09T07:47:58.909Z,18.90
2022-11-09T07:50:27.581Z,18.90
2022-11-09T07:52:56.409Z,18.90
2022-11-09T07:55:25.316Z,18.90
2022-11-09T07:57:57.724Z,18.90
2022-11-09T08:00:29.309Z,18.90
2022-11-09T08:02:57.785Z,18.90
2022-11-09T08:05:26.764Z,19.00
2022-11-09T08:07:58.274Z,19.00
2022-11-09T08:10:27.638Z,19.00
2022-11-09T08:12:57.000Z,19.00
2022-11-09T08:15:27.659Z,19.00
2022-11-09T08:17:56.163Z,19.00
2022-11-09T08:20:24.537Z,19.00
2022-11-09T08:22:52.806Z,19.00
2022-11-09T08:25:21.700Z,19.00
2022-11-09T08:27:50.205Z,19.00
2022-11-09T08:30:20.552Z,19.00
2022-11-09T08:32:51.233Z,19.10
2022-11-09T08:35:22.557Z,19.00
2022-11-09T08:37:52.673Z,19.10
2022-11-09T08:40:22.989Z,19.10
2022-11-09T08:42:51.352Z,19.10
2022-11-09T08:45:20.227Z,19.10
2022-11-09T08:47:49.996Z,19.20
2022-11-09T08:50:18.394Z,19.20
2022-11-09T08:52:46.753Z,19.30
2022-11-09T08:55:15.132Z,19.20
2022-11-09T08:57:43.454Z,19.20
2022-11-09T09:00:12.777Z,19.30
2022-11-09T09:02:41.440Z,19.30
2022-11-09T09:05:11.197Z,19.30
2022-11-09T09:07:39.535Z,19.30
2022-11-09T09:10:08.384Z,19.40
2022-11-09T09:12:39.269Z,19.30
2022-11-09T09:15:08.414Z,19.30
2022-11-09T09:17:36.729Z,19.40
2022-11-09T09:20:06.285Z,19.30
2022-11-09T09:22:36.082Z,19.40
2022-11-09T09:25:05.414Z,19.40
2022-11-09T09:27:34.335Z,19.40
2022-11-09T09:30:02.875Z,19.40
2022-11-09T09:32:31.198Z,19.40
2022-11-09T09:34:59.619Z,19.40
2022-11-09T09:37:27.991Z,19.40
2022-11-09T09:39:57.717Z,19.40
2022-11-09T09:42:32.313Z,19.40
2022-11-09T09:45:04.214Z,19.40
2022-11-09T09:47:45.904Z,19.40
2022-11-09T09:50:19.171Z,19.40
2022-11-09T09:53:17.686Z,19.40
2022-11-09T09:55:46.403Z,19.40
2022-11-09T09:58:22.379Z,19.40
2022-11-09T10:00:56.198Z,19.40
2022-11-09T10:03:24.554Z,19.40
2022-11-09T10:06:03.395Z,19.40
2022-11-09T10:08:46.141Z,19.50
2022-11-09T10:11:26.056Z,19.50
2022-11-09T10:14:14.274Z,19.50
2022-11-09T10:16:50.384Z,19.50
2022-11-09T10:19:31.324Z,19.60
2022-11-09T10:22:07.181Z,19.60
2022-11-09T10:25:12.831Z,19.60
2022-11-09T10:27:36.933Z,19.70
2022-11-09T10:30:15.656Z,19.70
2022-11-09T10:32:46.537Z,19.80
2022-11-09T10:35:21.455Z,20.00
2022-11-09T10:37:50.897Z,20.10
2022-11-09T10:40:24.130Z,20.20
2022-11-09T10:42:56.522Z,20.20
2022-11-09T10:45:31.845Z,20.20
2022-11-09T10:48:01.179Z,20.20
2022-11-09T10:50:34.491Z,20.30
2022-11-09T10:53:17.128Z,20.40
2022-11-09T10:55:53.850Z,20.40
2022-11-09T10:58:30.028Z,20.50
2022-11-09T11:01:05.083Z,20.60
2022-11-09T11:03:37.101Z,20.60
2022-11-09T11:06:07.493Z,20.70
2022-11-09T11:08:41.052Z,20.80
2022-11-09T11:11:33.790Z,20.90
2022-11-09T11:14:22.479Z,20.90
2022-11-09T11:16:53.287Z,20.90
2022-11-09T11:19:34.991Z,20.90
2022-11-09T11:22:23.141Z,20.90
2022-11-09T11:24:57.081Z,20.80
2022-11-09T11:27:33.354Z,20.80
2022-11-09T11:30:11.671Z,20.70
2022-11-09T11:32:42.103Z,20.70
2022-11-09T11:35:17.865Z,20.60
2022-11-09T11:37:55.942Z,20.70
2022-11-09T11:40:31.022Z,20.60
2022-11-09T11:43:11.320Z,20.60
2022-11-09T11:45:48.187Z,20.60
2022-11-09T11:48:52.191Z,20.60
2022-11-09T11:51:27.387Z,20.60
2022-11-09T11:54:06.341Z,20.50
2022-11-09T11:56:39.233Z,20.60
2022-11-09T11:59:28.120Z,20.60
2022-11-09T12:02:26.410Z,20.70
2022-11-09T12:05:22.912Z,20.70
2022-11-09T12:07:58.811Z,20.70
2022-11-09T12:10:39.861Z,20.70
2022-11-09T12:13:18.435Z,20.70
2022-11-09T12:15:57.207Z,20.70
2022-11-09T12:18:39.966Z,20.70
2022-11-09T12:21:16.848Z,20.70
2022-11-09T12:23:59.308Z,20.70
2022-11-09T12:26:41.005Z,20.80
2022-11-09T12:29:18.351Z,20.70
2022-11-09T12:31:58.577Z,20.90
2022-11-09T12:34:33.936Z,21.00
2022-11-09T12:37:04.592Z,21.10
2022-11-09T12:39:40.099Z,21.10
2022-11-09T12:42:14.808Z,21.10
2022-11-09T12:44:48.366Z,21.20
2022-11-09T12:47:22.121Z,21.20
2022-11-09T12:49:52.381Z,21.20
2022-11-09T12:52:27.189Z,21.20
2022-11-09T12:54:56.767Z,21.20
2022-11-09T12:57:27.692Z,21.20
2022-11-09T12:59:57.391Z,21.20
2022-11-09T13:02:31.123Z,21.30
2022-11-09T13:05:03.779Z,21.30
2022-11-09T13:07:49.784Z,21.30
2022-11-09T13:10:31.120Z,21.30
2022-11-09T13:13:20.723Z,21.30
2022-11-09T13:16:05.158Z,21.30
2022-11-09T13:18:51.347Z,21.30
2022-11-09T13:21:41.223Z,21.30
2022-11-09T13:24:55.536Z,21.40
2022-11-09T13:27:42.756Z,21.40
2022-11-09T13:30:40.547Z,21.40
2022-11-09T13:33:23.889Z,21.50
2022-11-09T13:36:22.944Z,21.60
2022-11-09T13:39:24.599Z,21.70
2022-11-09T13:41:54.324Z,21.70
2022-11-09T13:44:32.935Z,21.80
2022-11-09T13:47:04.544Z,21.80
2022-11-09T13:49:44.534Z,21.80
2022-11-09T13:52:52.315Z,21.80
2022-11-09T13:55:31.947Z,21.80
2022-11-09T13:58:06.506Z,21.70
2022-11-09T14:00:34.991Z,21.70
2022-11-09T14:03:06.781Z,21.70
2022-11-09T14:05:38.621Z,21.60
2022-11-09T14:08:07.368Z,21.70
2022-11-09T14:10:54.440Z,21.60
2022-11-09T14:13:43.463Z,21.60
2022-11-09T14:16:22.495Z,21.50
2022-11-09T14:19:03.389Z,21.50
2022-11-09T14:21:40.294Z,21.50
2022-11-09T14:24:20.808Z,21.40
2022-11-09T14:27:14.132Z,21.40
2022-11-09T14:29:52.899Z,21.40
2022-11-09T14:32:27.721Z,21.40
2022-11-09T14:35:10.805Z,21.30
2022-11-09T14:37:44.349Z,21.30
2022-11-09T14:40:23.258Z,21.30
2022-11-09T14:42:54.592Z,21.20
2022-11-09T14:45:25.589Z,21.30
2022-11-09T14:47:57.184Z,21.30
2022-11-09T14:50:27.933Z,21.20
2022-11-09T14:52:57.379Z,21.20
2022-11-09T14:55:27.237Z,21.20
2022-11-09T14:57:56.974Z,21.20
2022-11-09T15:00:31.350Z,21.20
2022-11-09T15:03:00.400Z,21.20
2022-11-09T15:05:40.115Z,21.20
2022-11-09T15:08:19.655Z,21.20
2022-11-09T15:10:52.768Z,21.20
2022-11-09T15:13:28.596Z,21.10
2022-11-09T15:15:58.291Z,21.20
2022-11-09T15:18:33.756Z,21.10
2022-11-09T15:21:14.041Z,21.10
2022-11-09T15:23:44.434Z,21.10
2022-11-09T15:26:40.915Z,21.10
2022-11-09T15:29:31.810Z,21.00
2022-11-09T15:32:07.929Z,21.00
2022-11-09T15:34:40.291Z,21.00
2022-11-09T15:37:25.410Z,21.00
2022-11-09T15:39:53.986Z,21.00
2022-11-09T15:42:22.919Z,21.00
2022-11-09T15:44:55.837Z,21.00
2022-11-09T15:47:32.495Z,20.90
2022-11-09T15:50:02.126Z,20.90
2022-11-09T15:52:30.506Z,20.90
2022-11-09T15:54:58.818Z,20.90
2022-11-09T15:57:27.116Z,20.90
2022-11-09T15:59:55.417Z,20.90
2022-11-09T16:02:25.135Z,20.80
2022-11-09T16:04:53.398Z,20.80
2022-11-09T16:07:22.060Z,20.80
2022-11-09T16:09:50.448Z,20.80
2022-11-09T16:12:18.771Z,20.80
2022-11-09T16:14:47.020Z,20.80
2022-11-09T16:17:15.337Z,20.80
2022-11-09T16:19:45.163Z,20.80
2022-11-09T16:22:31.745Z,20.70
2022-11-09T16:25:00.251Z,20.70
2022-11-09T16:27:48.934Z,20.70
2022-11-09T16:30:18.354Z,20.70
2022-11-09T16:32:46.770Z,20.70
2022-11-09T16:35:27.679Z,20.70
2022-11-09T16:37:57.356Z,20.70
2022-11-09T16:40:27.080Z,20.70
2022-11-09T16:42:55.445Z,20.70
2022-11-09T16:45:25.953Z,20.70
2022-11-09T16:47:58.635Z,20.70
2022-11-09T16:50:28.564Z,20.70
2022-11-09T16:52:57.436Z,20.70
2022-11-09T16:55:25.919Z,20.70
2022-11-09T16:57:55.159Z,20.70
2022-11-09T17:00:37.464Z,20.60
2022-11-09T17:03:13.601Z,20.60
2022-11-09T17:05:43.877Z,20.60
2022-11-09T17:08:13.172Z,20.60
2022-11-09T17:10:46.196Z,20.60
2022-11-09T17:13:15.323Z,20.60
2022-11-09T17:15:44.575Z,20.60
2022-11-09T17:18:13.333Z,20.60
2022-11-09T17:20:47.780Z,20.60
2022-11-09T17:23:18.937Z,20.60
2022-11-09T17:25:56.628Z,20.60
2022-11-09T17:28:25.665Z,20.60
2022-11-09T17:30:54.379Z,20.60
2022-11-09T17:33:23.896Z,20.60
2022-11-09T17:36:01.407Z,20.60
2022-11-09T17:38:31.185Z,20.60
2022-11-09T17:41:04.559Z,20.60
2022-11-09T17:43:34.181Z,20.60
2022-11-09T17:46:06.390Z,20.60
2022-11-09T17:48:35.712Z,20.60
2022-11-09T17:51:06.862Z,20.60
2022-11-09T17:53:35.583Z,20.60
2022-11-09T17:56:05.178Z,20.60
2022-11-09T17:58:33.741Z,20.60
2022-11-09T18:01:07.389Z,20.60
2022-11-09T18:03:37.655Z,20.60
2022-11-09T18:06:11.704Z,20.60
2022-11-09T18:08:40.065Z,20.60
2022-11-09T18:11:09.157Z,20.60
2022-11-09T18:13:38.006Z,20.60
2022-11-09T18:16:07.880Z,20.60
2022-11-09T18:18:36.890Z,20.60
2022-11-09T18:21:11.511Z,20.60
2022-11-09T18:23:40.003Z,20.60
2022-11-09T18:26:09.279Z,20.60
2022-11-09T18:28:38.443Z,20.60
2022-11-09T18:31:09.052Z,20.60
2022-11-09T18:33:37.852Z,20.60
2022-11-09T18:36:09.204Z,20.60
2022-11-09T18:38:39.228Z,20.50
2022-11-09T18:41:09.916Z,20.50
2022-11-09T18:43:38.747Z,20.50
2022-11-09T18:46:09.055Z,20.50
2022-11-09T18:48:37.865Z,20.50
2022-11-09T18:51:07.661Z,20.50
2022-11-09T18:53:39.509Z,20.50
2022-11-09T18:56:10.162Z,20.50
2022-11-09T18:58:38.719Z,20.50
2022-11-09T19:01:09.993Z,20.40
2022-11-09T19:03:41.502Z,20.40
2022-11-09T19:06:15.707Z,20.40
2022-11-09T19:09:03.527Z,20.40
2022-11-09T19:11:32.901Z,20.40
2022-11-09T19:14:01.318Z,20.40
2022-11-09T19:16:29.693Z,20.40
2022-11-09T19:18:58.083Z,20.40
2022-11-09T19:21:35.436Z,20.40
2022-11-09T19:24:06.013Z,20.40
2022-11-09T19:26:35.846Z,20.40
2022-11-09T19:29:06.083Z,20.40
2022-11-09T19:31:43.176Z,20.40
2022-11-09T19:34:12.255Z,20.40
2022-11-09T19:36:41.763Z,20.40
2022-11-09T19:39:11.829Z,20.40
2022-11-09T19:41:40.814Z,20.40
2022-11-09T19:44:09.763Z,20.40
2022-11-09T19:46:38.251Z,20.40
2022-11-09T19:49:07.594Z,20.40
2022-11-09T19:51:36.019Z,20.40
2022-11-09T19:54:06.226Z,20.40
2022-11-09T19:56:37.415Z,20.40
2022-11-09T19:59:07.263Z,20.40
2022-11-09T20:01:36.323Z,20.40
2022-11-09T20:04:09.931Z,20.40
2022-11-09T20:06:40.248Z,20.40
2022-11-09T20:09:08.771Z,20.40
2022-11-09T20:11:55.867Z,20.40
2022-11-09T20:14:24.391Z,20.30
2022-11-09T20:16:53.633Z,20.30
2022-11-09T20:19:24.119Z,20.30
2022-11-09T20:21:52.585Z,20.30
2022-11-09T20:24:21.653Z,20.30
2022-11-09T20:26:51.691Z,20.30
2022-11-09T20:29:21.582Z,20.30
2022-11-09T20:31:50.300Z,20.30
2022-11-09T20:34:18.942Z,20.20
2022-11-09T20:36:47.588Z,20.20
2022-11-09T20:39:16.247Z,20.20
2022-11-09T20:41:44.662Z,20.20
2022-11-09T20:44:14.707Z,20.20
2022-11-09T20:46:43.223Z,20.20
2022-11-09T20:49:12.288Z,20.30
2022-11-09T20:51:41.249Z,20.20
2022-11-09T20:54:09.848Z,20.20
2022-11-09T20:56:38.759Z,20.20
2022-11-09T20:59:07.766Z,20.20
2022-11-09T21:01:37.618Z,20.20
2022-11-09T21:04:07.066Z,20.20
2022-11-09T21:06:35.865Z,20.20
2022-11-09T21:09:06.024Z,20.20
2022-11-09T21:11:57.523Z,20.20
2022-11-09T21:14:26.902Z,20.20
2022-11-09T21:16:57.041Z,20.30
2022-11-09T21:19:25.835Z,20.20
2022-11-09T21:21:58.872Z,20.20
2022-11-09T21:24:47.613Z,20.20
2022-11-09T21:27:35.307Z,20.20
2022-11-09T21:30:04.448Z,20.20
2022-11-09T21:32:34.394Z,20.20
2022-11-09T21:35:03.002Z,20.20
2022-11-09T21:37:31.491Z,20.20
2022-11-09T21:40:00.194Z,20.20
2022-11-09T21:42:28.673Z,20.20
2022-11-09T21:44:57.042Z,20.20
2022-11-09T21:47:26.348Z,20.20
2022-11-09T21:49:56.118Z,20.20
2022-11-09T21:52:24.664Z,20.20
2022-11-09T21:54:53.087Z,20.20
2022-11-09T21:57:21.506Z,20.20
2022-11-09T21:59:50.282Z,20.20
2022-11-09T22:02:18.733Z,20.20
2022-11-09T22:04:47.209Z,20.20
2022-11-09T22:07:17.156Z,20.10
2022-11-09T22:10:09.553Z,20.20
2022-11-09T22:12:56.420Z,20.10
2022-11-09T22:15:42.468Z,20.10
2022-11-09T22:18:31.623Z,20.10
2022-11-09T22:20:59.687Z,20.10
2022-11-09T22:23:29.646Z,20.10
2022-11-09T22:26:02.105Z,20.10
2022-11-09T22:28:30.589Z,20.10
2022-11-09T22:31:01.890Z,20.10
2022-11-09T22:33:31.082Z,20.10
2022-11-09T22:36:02.436Z,20.10
2022-11-09T22:38:33.061Z,20.00
2022-11-09T22:41:03.086Z,20.00
2022-11-09T22:43:34.752Z,20.10
2022-11-09T22:46:06.832Z,20.00
2022-11-09T22:48:36.383Z,20.00
2022-11-09T22:51:05.439Z,20.00
2022-11-09T22:53:35.768Z,20.00
2022-11-09T22:56:05.627Z,20.00
2022-11-09T22:58:34.175Z,20.00
2022-11-09T23:01:08.398Z,20.00
2022-11-09T23:03:37.164Z,20.00
2022-11-09T23:06:07.192Z,19.90
2022-11-09T23:08:38.312Z,19.90
2022-11-09T23:11:07.525Z,20.00
2022-11-09T23:13:38.458Z,19.90
2022-11-09T23:16:09.155Z,19.90
2022-11-09T23:18:55.586Z,19.90
2022-11-09T23:21:25.913Z,19.90
2022-11-09T23:23:57.249Z,19.90
2022-11-09T23:26:27.547Z,19.90
2022-11-09T23:28:56.195Z,19.90
2022-11-09T23:31:25.330Z,19.90
2022-11-09T23:33:55.721Z,19.90
2022-11-09T23:36:25.468Z,19.80
2022-11-09T23:38:55.397Z,19.90
2022-11-09T23:41:23.742Z,19.80
2022-11-09T23:43:56.482Z,19.80
2022-11-09T23:46:24.931Z,19.80
2022-11-09T23:48:53.604Z,19.80
2022-11-09T23:51:23.453Z,19.80
2022-11-09T23:53:51.822Z,19.80
2022-11-09T23:56:21.832Z,19.80
2022-11-09T23:58:51.880Z,19.80
